createdAt,value
2023-03-20T00:02:19.466Z,101237.38
2023-03-20T00:04:45.984Z,101231.31
2023-03-20T00:07:12.649Z,101235.78
2023-03-20T00:09:40.199Z,101240.34
2023-03-20T00:12:07.045Z,101240.84
2023-03-20T00:14:34.350Z,101243.75
2023-03-20T00:17:00.912Z,101239.97
2023-03-20T00:19:31.677Z,101236.72
2023-03-20T00:21:58.469Z,101239.25
2023-03-20T00:24:25.706Z,101240.97
2023-03-20T00:26:53.451Z,101251.00
2023-03-20T00:29:26.208Z,101244.75
2023-03-20T00:31:53.956Z,101242.69
2023-03-20T00:34:23.826Z,101233.38
2023-03-20T00:36:51.093Z,101233.69
2023-03-20T00:39:17.591Z,101232.13
2023-03-20T00:41:56.542Z,101230.75
2023-03-20T00:44:35.805Z,101226.41
2023-03-20T00:47:13.497Z,101237.88
2023-03-20T00:49:40.238Z,101234.16
2023-03-20T00:52:09.164Z,101227.03
2023-03-20T00:54:36.179Z,101237.50
2023-03-20T00:57:07.817Z,101235.03
2023-03-20T00:59:37.614Z,101232.03
2023-03-20T01:02:05.932Z,101235.41
2023-03-20T01:04:38.160Z,101229.22
2023-03-20T01:07:06.876Z,101227.31
2023-03-20T01:09:34.578Z,101223.44
2023-03-20T01:12:02.173Z,101219.56
2023-03-20T01:14:28.900Z,101223.88
2023-03-20T01:16:55.796Z,101234.03
2023-03-20T01:19:22.383Z,101225.88
2023-03-20T01:21:48.828Z,101230.81
2023-03-20T01:24:15.553Z,101229.19
2023-03-20T01:26:43.987Z,101242.22
2023-03-20T01:29:22.601Z,101250.88
2023-03-20T01:31:51.164Z,101251.75
2023-03-20T01:34:19.653Z,101249.97
2023-03-20T01:36:50.741Z,101237.88
2023-03-20T01:39:19.091Z,101237.44
2023-03-20T01:41:47.047Z,101239.06
2023-03-20T01:44:40.665Z,101241.97
2023-03-20T01:47:16.807Z,101247.16
2023-03-20T01:50:18.442Z,101248.19
2023-03-20T01:52:48.680Z,101243.25
2023-03-20T01:55:15.551Z,101250.53
2023-03-20T01:57:45.232Z,101252.19
2023-03-20T02:00:16.773Z,101259.44
2023-03-20T02:02:47.065Z,101261.06
2023-03-20T02:05:27.703Z,101266.25
2023-03-20T02:08:16.719Z,101266.50
2023-03-20T02:10:46.812Z,101286.75
2023-03-20T02:13:20.873Z,101288.13
2023-03-20T02:16:14.389Z,101278.69
2023-03-20T02:18:59.762Z,101284.03
2023-03-20T02:21:41.700Z,101293.53
2023-03-20T02:25:05.304Z,101284.03
2023-03-20T02:27:42.884Z,101281.31
2023-03-20T02:30:50.735Z,101281.56
2023-03-20T02:33:32.163Z,101273.31
2023-03-20T02:36:14.158Z,101266.19
2023-03-20T02:39:07.842Z,101262.63
2023-03-20T02:41:45.702Z,101255.50
2023-03-20T02:44:32.409Z,101257.28
2023-03-20T02:47:16.908Z,101252.84
2023-03-20T02:49:54.157Z,101249.66
2023-03-20T02:52:38.634Z,101245.03
2023-03-20T02:55:17.543Z,101248.34
2023-03-20T02:57:55.440Z,101250.16
2023-03-20T03:00:35.543Z,101249.56
2023-03-20T03:03:11.868Z,101247.38
2023-03-20T03:05:49.436Z,101245.88
2023-03-20T03:08:20.555Z,101251.63
2023-03-20T03:10:58.744Z,101243.09
2023-03-20T03:13:30.399Z,101245.72
2023-03-20T03:16:04.325Z,101248.69
2023-03-20T03:18:34.438Z,101246.44
2023-03-20T03:21:04.322Z,101248.25
2023-03-20T03:23:43.122Z,101244.22
2023-03-20T03:26:18.589Z,101236.66
2023-03-20T03:28:51.014Z,101246.84
2023-03-20T03:31:18.929Z,101241.56
2023-03-20T03:33:48.872Z,101249.59
2023-03-20T03:36:43.225Z,101254.22
2023-03-20T03:39:09.644Z,101253.69
2023-03-20T03:41:53.834Z,101265.84
2023-03-20T03:44:28.949Z,101256.22
2023-03-20T03:47:07.565Z,101266.09
2023-03-20T03:49:39.727Z,101261.97
2023-03-20T03:52:11.677Z,101266.13
2023-03-20T03:54:44.437Z,101265.59
2023-03-20T03:57:52.628Z,101266.34
2023-03-20T04:00:23.686Z,101254.72
2023-03-20T04:02:54.403Z,101256.69
2023-03-20T04:05:23.106Z,101249.31
2023-03-20T04:07:54.106Z,101256.63
2023-03-20T04:10:21.152Z,101256.38
2023-03-20T04:12:47.796Z,101249.31
2023-03-20T04:15:16.235Z,101241.53
2023-03-20T04:17:43.585Z,101245.56
2023-03-20T04:20:13.123Z,101238.16
2023-03-20T04:22:40.553Z,101233.16
2023-03-20T04:25:20.566Z,101227.41
2023-03-20T04:27:48.357Z,101225.13
2023-03-20T04:30:23.259Z,101221.19
2023-03-20T04:33:08.278Z,101230.94
2023-03-20T04:35:53.611Z,101221.69
2023-03-20T04:38:20.971Z,101234.56
2023-03-20T04:40:48.222Z,101230.44
2023-03-20T04:43:15.680Z,101226.94
2023-03-20T04:45:42.837Z,101226.19
2023-03-20T04:48:09.959Z,101231.19
2023-03-20T04:50:37.706Z,101230.59
2023-03-20T04:53:05.028Z,101234.56
2023-03-20T04:55:31.917Z,101243.81
2023-03-20T04:57:59.243Z,101245.72
2023-03-20T05:00:26.837Z,101239.06
2023-03-20T05:02:53.272Z,101235.63
2023-03-20T05:05:19.764Z,101234.16
2023-03-20T05:07:46.528Z,101238.72
2023-03-20T05:10:23.365Z,101239.66
2023-03-20T05:12:55.802Z,101234.72
2023-03-20T05:15:35.171Z,101230.53
2023-03-20T05:18:17.371Z,101220.69
2023-03-20T05:21:07.276Z,101231.19
2023-03-20T05:23:53.948Z,101227.72
2023-03-20T05:26:29.644Z,101223.91
2023-03-20T05:29:05.262Z,101232.09
2023-03-20T05:31:50.304Z,101222.00
2023-03-20T05:34:38.182Z,101230.53
2023-03-20T05:37:10.890Z,101239.16
2023-03-20T05:40:00.624Z,101230.03
2023-03-20T05:42:33.861Z,101228.22
2023-03-20T05:45:19.360Z,101232.50
2023-03-20T05:47:56.198Z,101241.72
2023-03-20T05:50:47.248Z,101230.59
2023-03-20T05:53:33.046Z,101234.53
2023-03-20T05:56:25.971Z,101236.53
2023-03-20T05:59:12.222Z,101236.38
2023-03-20T06:01:49.221Z,101234.41
2023-03-20T06:04:23.880Z,101244.25
2023-03-20T06:07:09.168Z,101249.47
2023-03-20T06:09:37.570Z,101252.94
2023-03-20T06:12:09.272Z,101249.00
2023-03-20T06:14:35.763Z,101253.34
2023-03-20T06:17:06.066Z,101251.47
2023-03-20T06:19:32.560Z,101252.88
2023-03-20T06:21:59.021Z,101251.53
2023-03-20T06:24:25.591Z,101261.00
2023-03-20T06:26:52.506Z,101260.81
2023-03-20T06:29:19.252Z,101263.09
2023-03-20T06:31:47.251Z,101261.88
2023-03-20T06:34:23.396Z,101271.50
2023-03-20T06:36:50.107Z,101273.03
2023-03-20T06:39:20.817Z,101279.97
2023-03-20T06:41:48.139Z,101273.88
2023-03-20T06:44:14.864Z,101274.28
2023-03-20T06:46:59.868Z,101274.69
2023-03-20T06:49:27.748Z,101285.28
2023-03-20T06:51:55.435Z,101277.56
2023-03-20T06:54:24.425Z,101277.97
2023-03-20T06:56:51.789Z,101280.94
2023-03-20T06:59:20.871Z,101267.28
2023-03-20T07:01:47.413Z,101265.59
2023-03-20T07:04:14.664Z,101271.81
2023-03-20T07:06:47.527Z,101275.16
2023-03-20T07:09:14.534Z,101280.59
2023-03-20T07:11:41.737Z,101282.09
2023-03-20T07:14:08.390Z,101283.47
2023-03-20T07:16:43.829Z,101280.59
2023-03-20T07:19:10.825Z,101271.50
2023-03-20T07:21:41.018Z,101275.50
2023-03-20T07:24:08.152Z,101287.84
2023-03-20T07:26:34.581Z,101298.34
2023-03-20T07:29:03.274Z,101292.84
2023-03-20T07:31:32.242Z,101302.19
2023-03-20T07:34:12.926Z,101300.22
2023-03-20T07:36:41.968Z,101307.94
2023-03-20T07:39:10.096Z,101303.25
2023-03-20T07:41:41.684Z,101306.03
2023-03-20T07:44:10.625Z,101309.25
2023-03-20T07:46:51.204Z,101306.06
2023-03-20T07:49:21.241Z,101309.34
2023-03-20T07:51:49.216Z,101312.53
2023-03-20T07:54:16.163Z,101319.31
2023-03-20T07:56:43.031Z,101314.06
2023-03-20T07:59:09.901Z,101321.59
2023-03-20T08:01:36.261Z,101317.66
2023-03-20T08:04:02.836Z,101313.38
2023-03-20T08:06:29.323Z,101311.50
2023-03-20T08:08:56.019Z,101311.56
2023-03-20T08:11:22.513Z,101329.63
2023-03-20T08:13:48.898Z,101317.47
2023-03-20T08:16:15.580Z,101323.88
2023-03-20T08:18:42.502Z,101324.00
2023-03-20T08:21:09.098Z,101325.63
2023-03-20T08:23:35.697Z,101335.53
2023-03-20T08:26:02.186Z,101323.41
2023-03-20T08:28:46.267Z,101332.13
2023-03-20T08:31:14.592Z,101340.53
2023-03-20T08:33:41.216Z,101326.78
2023-03-20T08:36:07.906Z,101334.84
2023-03-20T08:38:34.447Z,101334.97
2023-03-20T08:41:01.000Z,101329.63
2023-03-20T08:43:27.367Z,101331.81
2023-03-20T08:45:54.371Z,101328.31
2023-03-20T08:48:21.058Z,101337.03
2023-03-20T08:50:47.655Z,101325.84
2023-03-20T08:53:14.270Z,101334.47
2023-03-20T08:55:41.352Z,101328.41
2023-03-20T08:58:07.832Z,101332.00
2023-03-20T09:00:34.232Z,101323.69
2023-03-20T09:03:00.744Z,101324.66
2023-03-20T09:05:27.893Z,101320.47
2023-03-20T09:07:54.474Z,101331.22
2023-03-20T09:10:21.060Z,101334.00
2023-03-20T09:12:47.482Z,101328.56
2023-03-20T09:15:14.046Z,101334.53
2023-03-20T09:17:40.840Z,101336.47
2023-03-20T09:20:08.289Z,101342.91
2023-03-20T09:22:34.773Z,101344.66
2023-03-20T09:25:01.307Z,101334.91
2023-03-20T09:27:27.790Z,101342.63
2023-03-20T09:29:54.202Z,101335.78
2023-03-20T09:32:20.608Z,101344.78
2023-03-20T09:34:47.058Z,101337.31
2023-03-20T09:37:14.013Z,101337.53
2023-03-20T09:39:40.674Z,101342.31
2023-03-20T09:42:21.649Z,101345.34
2023-03-20T09:44:59.279Z,101334.97
2023-03-20T09:47:35.191Z,101342.97
2023-03-20T09:50:13.412Z,101342.16
2023-03-20T09:52:58.836Z,101348.16
2023-03-20T09:55:44.317Z,101347.59
2023-03-20T09:58:23.440Z,101353.28
2023-03-20T10:00:49.910Z,101352.00
2023-03-20T10:03:24.658Z,101350.81
2023-03-20T10:05:57.445Z,101345.06
2023-03-20T10:08:33.925Z,101340.69
2023-03-20T10:11:31.483Z,101349.38
2023-03-20T10:14:22.381Z,101356.78
2023-03-20T10:17:02.022Z,101354.47
2023-03-20T10:19:31.160Z,101361.06
2023-03-20T10:22:07.587Z,101358.19
2023-03-20T10:24:39.994Z,101348.63
2023-03-20T10:27:18.186Z,101345.06
2023-03-20T10:30:02.307Z,101351.59
2023-03-20T10:32:33.198Z,101344.97
2023-03-20T10:35:13.936Z,101350.84
2023-03-20T10:37:57.002Z,101343.59
2023-03-20T10:40:31.880Z,101347.75
2023-03-20T10:43:24.554Z,101344.66
2023-03-20T10:45:53.011Z,101344.94
2023-03-20T10:48:31.194Z,101344.84
2023-03-20T10:51:02.523Z,101334.91
2023-03-20T10:53:42.162Z,101340.47
2023-03-20T10:56:17.208Z,101328.16
2023-03-20T10:58:48.288Z,101329.28
2023-03-20T11:01:14.821Z,101318.84
2023-03-20T11:03:41.333Z,101323.56
2023-03-20T11:06:20.246Z,101323.44
2023-03-20T11:08:51.214Z,101323.84
2023-03-20T11:11:27.836Z,101321.81
2023-03-20T11:13:54.952Z,101322.41
2023-03-20T11:16:28.004Z,101330.28
2023-03-20T11:18:55.001Z,101328.69
2023-03-20T11:21:31.240Z,101318.50
2023-03-20T11:23:57.891Z,101327.53
2023-03-20T11:26:40.219Z,101324.34
2023-03-20T11:29:11.863Z,101321.00
2023-03-20T11:31:40.972Z,101317.63
2023-03-20T11:34:07.503Z,101311.38
2023-03-20T11:36:36.665Z,101303.84
2023-03-20T11:39:15.535Z,101309.19
2023-03-20T11:41:45.146Z,101303.78
2023-03-20T11:44:32.785Z,101303.28
2023-03-20T11:47:05.916Z,101302.16
2023-03-20T11:49:45.673Z,101296.53
2023-03-20T11:52:14.776Z,101282.19
2023-03-20T11:54:49.636Z,101294.91
2023-03-20T11:57:35.855Z,101285.88
2023-03-20T12:00:16.409Z,101290.06
2023-03-20T12:02:43.513Z,101286.38
2023-03-20T12:05:30.597Z,101288.03
2023-03-20T12:08:02.243Z,101283.44
2023-03-20T12:10:37.050Z,101281.53
2023-03-20T12:13:15.897Z,101295.78
2023-03-20T12:15:47.821Z,101282.94
2023-03-20T12:18:34.943Z,101282.84
2023-03-20T12:21:04.182Z,101288.41
2023-03-20T12:23:43.309Z,101279.91
2023-03-20T12:26:18.190Z,101280.84
2023-03-20T12:28:54.452Z,101287.56
2023-03-20T12:31:38.247Z,101277.78
2023-03-20T12:34:29.212Z,101277.47
2023-03-20T12:36:58.529Z,101276.97
2023-03-20T12:39:29.409Z,101278.94
2023-03-20T12:42:23.468Z,101282.84
2023-03-20T12:45:11.333Z,101286.34
2023-03-20T12:48:06.062Z,101274.69
2023-03-20T12:50:36.885Z,101273.34
2023-03-20T12:53:21.777Z,101265.47
2023-03-20T12:55:50.932Z,101261.66
2023-03-20T12:59:05.760Z,101260.38
2023-03-20T13:01:40.381Z,101260.88
2023-03-20T13:04:32.803Z,101252.47
2023-03-20T13:07:17.285Z,101256.47
2023-03-20T13:09:53.165Z,101245.81
2023-03-20T13:12:53.480Z,101257.50
2023-03-20T13:15:44.607Z,101253.72
2023-03-20T13:18:24.215Z,101249.69
2023-03-20T13:21:06.575Z,101244.81
2023-03-20T13:24:04.132Z,101245.94
2023-03-20T13:26:55.080Z,101246.50
2023-03-20T13:29:38.750Z,101240.22
2023-03-20T13:32:27.287Z,101235.59
2023-03-20T13:34:58.139Z,101238.84
2023-03-20T13:37:35.772Z,101240.47
2023-03-20T13:40:25.941Z,101228.78
2023-03-20T13:43:23.908Z,101229.84
2023-03-20T13:45:58.894Z,101230.06
2023-03-20T13:48:41.403Z,101237.97
2023-03-20T13:51:29.665Z,101237.16
2023-03-20T13:54:12.474Z,101234.66
2023-03-20T13:57:12.004Z,101235.50
2023-03-20T14:00:09.316Z,101231.44
2023-03-20T14:02:53.323Z,101224.59
2023-03-20T14:05:22.784Z,101229.38
2023-03-20T14:07:56.597Z,101231.50
2023-03-20T14:10:23.188Z,101227.19
2023-03-20T14:13:00.243Z,101231.25
2023-03-20T14:15:38.979Z,101234.03
2023-03-20T14:18:16.119Z,101222.13
2023-03-20T14:20:44.413Z,101237.97
2023-03-20T14:23:36.592Z,101229.50
2023-03-20T14:26:10.693Z,101226.44
2023-03-20T14:28:51.869Z,101225.81
2023-03-20T14:31:25.705Z,101223.94
2023-03-20T14:34:13.782Z,101229.63
2023-03-20T14:37:05.653Z,101227.88
2023-03-20T14:40:05.250Z,101228.72
2023-03-20T14:42:46.852Z,101220.50
2023-03-20T14:45:13.442Z,101227.00
2023-03-20T14:47:42.893Z,101213.31
2023-03-20T14:50:10.098Z,101227.13
2023-03-20T14:53:14.049Z,101215.63
2023-03-20T14:55:55.815Z,101220.78
2023-03-20T14:58:43.575Z,101233.66
2023-03-20T15:01:19.582Z,101232.47
2023-03-20T15:04:08.452Z,101225.78
2023-03-20T15:06:45.477Z,101228.78
2023-03-20T15:09:12.633Z,101225.78
2023-03-20T15:11:41.323Z,101236.91
2023-03-20T15:14:09.677Z,101228.53
2023-03-20T15:16:37.861Z,101234.72
2023-03-20T15:19:16.972Z,101231.19
2023-03-20T15:21:45.708Z,101228.47
2023-03-20T15:24:24.428Z,101227.66
2023-03-20T15:26:57.420Z,101227.34
2023-03-20T15:29:24.493Z,101230.06
2023-03-20T15:32:12.423Z,101219.72
2023-03-20T15:34:41.143Z,101217.41
2023-03-20T15:37:15.011Z,101219.88
2023-03-20T15:39:48.439Z,101217.13
2023-03-20T15:42:18.784Z,101215.19
2023-03-20T15:44:48.034Z,101212.03
2023-03-20T15:47:22.996Z,101213.38
2023-03-20T15:50:00.506Z,101213.72
2023-03-20T15:52:36.893Z,101208.59
2023-03-20T15:55:13.811Z,101211.59
2023-03-20T15:57:43.837Z,101214.56
2023-03-20T16:00:32.465Z,101205.91
2023-03-20T16:03:06.849Z,101212.50
2023-03-20T16:05:35.187Z,101209.53
2023-03-20T16:08:22.125Z,101204.34
2023-03-20T16:10:48.518Z,101200.28
2023-03-20T16:13:19.537Z,101202.44
2023-03-20T16:15:46.459Z,101198.72
2023-03-20T16:18:17.037Z,101198.88
2023-03-20T16:21:06.943Z,101197.81
2023-03-20T16:23:37.552Z,101193.44
2023-03-20T16:26:07.162Z,101196.06
2023-03-20T16:28:36.582Z,101190.94
2023-03-20T16:31:09.926Z,101184.97
2023-03-20T16:33:39.693Z,101197.75
2023-03-20T16:36:07.001Z,101199.13
2023-03-20T16:38:36.665Z,101205.56
2023-03-20T16:41:28.559Z,101202.94
2023-03-20T16:43:55.738Z,101202.97
2023-03-20T16:46:24.332Z,101204.22
2023-03-20T16:48:52.443Z,101198.28
2023-03-20T16:51:24.530Z,101187.63
2023-03-20T16:53:55.463Z,101191.66
2023-03-20T16:56:28.980Z,101200.25
2023-03-20T16:58:56.867Z,101195.88
2023-03-20T17:01:26.967Z,101197.22
2023-03-20T17:03:56.552Z,101198.03
2023-03-20T17:06:22.901Z,101196.72
2023-03-20T17:09:01.992Z,101196.66
2023-03-20T17:11:34.553Z,101193.41
2023-03-20T17:14:03.212Z,101187.97
2023-03-20T17:16:30.884Z,101191.81
2023-03-20T17:19:14.692Z,101199.34
2023-03-20T17:21:42.396Z,101198.44
2023-03-20T17:24:10.245Z,101201.69
2023-03-20T17:26:37.557Z,101207.06
2023-03-20T17:29:04.911Z,101197.22
2023-03-20T17:31:31.797Z,101206.41
2023-03-20T17:33:58.238Z,101203.25
2023-03-20T17:36:27.459Z,101203.38
2023-03-20T17:38:55.142Z,101214.22
2023-03-20T17:41:22.883Z,101209.97
2023-03-20T17:43:51.360Z,101223.13
2023-03-20T17:46:22.273Z,101221.31
2023-03-20T17:48:49.172Z,101219.09
2023-03-20T17:51:15.949Z,101224.56
2023-03-20T17:53:43.514Z,101216.81
2023-03-20T17:56:12.827Z,101221.56
2023-03-20T17:58:40.034Z,101216.19
2023-03-20T18:01:08.971Z,101217.31
2023-03-20T18:03:36.041Z,101230.56
2023-03-20T18:06:03.893Z,101220.56
2023-03-20T18:08:30.525Z,101223.66
2023-03-20T18:10:57.654Z,101222.03
2023-03-20T18:13:26.402Z,101223.78
2023-03-20T18:15:55.358Z,101215.09
2023-03-20T18:18:23.862Z,101221.44
2023-03-20T18:20:50.776Z,101222.38
2023-03-20T18:23:17.258Z,101216.63
2023-03-20T18:25:43.881Z,101217.78
2023-03-20T18:28:20.598Z,101223.44
2023-03-20T18:30:48.628Z,101222.78
2023-03-20T18:33:16.131Z,101235.25
2023-03-20T18:35:43.176Z,101225.50
2023-03-20T18:38:13.297Z,101221.31
2023-03-20T18:40:40.678Z,101222.22
2023-03-20T18:43:07.080Z,101223.44
2023-03-20T18:45:33.525Z,101229.75
2023-03-20T18:48:03.556Z,101221.56
2023-03-20T18:50:35.031Z,101221.81
2023-03-20T18:53:04.604Z,101212.72
2023-03-20T18:55:31.809Z,101210.41
2023-03-20T18:57:58.701Z,101213.44
2023-03-20T19:00:35.975Z,101213.03
2023-03-20T19:03:02.805Z,101208.25
2023-03-20T19:05:31.156Z,101217.97
2023-03-20T19:07:59.740Z,101224.44
2023-03-20T19:10:36.256Z,101213.53
2023-03-20T19:13:05.100Z,101225.53
2023-03-20T19:15:36.490Z,101215.75
2023-03-20T19:18:05.169Z,101220.59
2023-03-20T19:20:41.816Z,101221.59
2023-03-20T19:23:11.791Z,101215.75
2023-03-20T19:25:39.413Z,101219.28
2023-03-20T19:28:05.940Z,101227.56
2023-03-20T19:30:38.344Z,101224.78
2023-03-20T19:33:06.792Z,101222.06
2023-03-20T19:36:01.034Z,101219.03
2023-03-20T19:38:21.695Z,101229.72
2023-03-20T19:40:52.797Z,101229.00
2023-03-20T19:43:21.483Z,101224.72
2023-03-20T19:45:51.673Z,101214.19
2023-03-20T19:48:22.989Z,101226.13
2023-03-20T19:50:51.203Z,101224.72
2023-03-20T19:53:21.284Z,101218.88
2023-03-20T19:55:48.188Z,101227.00
2023-03-20T19:58:14.869Z,101218.56
2023-03-20T20:01:00.821Z,101221.44
2023-03-20T20:03:27.899Z,101225.44
2023-03-20T20:05:55.174Z,101224.88
2023-03-20T20:08:44.831Z,101215.53
2023-03-20T20:11:11.861Z,101214.94
2023-03-20T20:13:57.227Z,101221.03
2023-03-20T20:16:25.233Z,101219.28
2023-03-20T20:18:51.659Z,101214.78
2023-03-20T20:24:04.942Z,101217.00
2023-03-20T20:26:38.579Z,101215.94
2023-03-20T20:29:06.856Z,101219.44
2023-03-20T20:31:33.342Z,101213.53
2023-03-20T20:34:48.914Z,101211.06
2023-03-20T20:39:33.422Z,101204.22
2023-03-20T20:41:59.894Z,101202.84
2023-03-20T20:44:26.394Z,101206.91
2023-03-20T20:46:52.823Z,101201.09
2023-03-20T20:49:20.276Z,101201.59
2023-03-20T20:51:48.026Z,101201.09
2023-03-20T20:54:14.898Z,101205.56
2023-03-20T20:56:41.642Z,101202.34
2023-03-20T20:59:08.492Z,101194.59
2023-03-20T21:01:35.329Z,101199.03
2023-03-20T21:04:02.343Z,101194.53
2023-03-20T21:06:50.853Z,101200.44
2023-03-20T21:09:15.364Z,101194.53
2023-03-20T21:11:42.079Z,101197.47
2023-03-20T21:14:08.484Z,101200.31
2023-03-20T21:16:34.894Z,101206.34
2023-03-20T21:19:02.692Z,101198.88
2023-03-20T21:21:30.241Z,101199.56
2023-03-20T21:23:57.058Z,101199.19
2023-03-20T21:26:23.741Z,101195.56
2023-03-20T21:28:50.443Z,101193.28
2023-03-20T21:31:28.497Z,101201.94
2023-03-20T21:33:56.933Z,101194.06
2023-03-20T21:36:23.806Z,101197.25
2023-03-20T21:39:07.308Z,101196.34
2023-03-20T21:41:37.782Z,101191.84
2023-03-20T21:44:05.782Z,101190.91
2023-03-20T22:03:33.743Z,101180.34
2023-03-20T22:15:11.965Z,101175.75
2023-03-20T22:26:15.562Z,101174.19
2023-03-20T22:37:35.427Z,101175.94
2023-03-20T22:42:49.696Z,101180.09
2023-03-20T22:45:09.628Z,101178.38
2023-03-20T22:47:36.402Z,101178.66
2023-03-20T22:50:02.908Z,101178.50
2023-03-20T22:52:45.566Z,101177.41
2023-03-20T22:55:15.311Z,101171.44
2023-03-20T22:57:50.060Z,101173.50
2023-03-20T23:00:22.671Z,101172.56
2023-03-20T23:02:49.286Z,101171.63
2023-03-20T23:05:16.424Z,101168.09
2023-03-20T23:07:43.178Z,101173.91
2023-03-20T23:10:10.764Z,101166.13
2023-03-20T23:12:38.176Z,101166.94
2023-03-20T23:15:06.182Z,101174.00
2023-03-20T23:17:32.693Z,101167.09
2023-03-20T23:20:10.519Z,101169.56
2023-03-20T23:22:38.910Z,101166.34
2023-03-20T23:25:16.518Z,101165.38
2023-03-20T23:27:47.308Z,101167.91
2023-03-20T23:30:14.719Z,101168.09
2023-03-20T23:32:42.912Z,101158.22
2023-03-20T23:35:09.961Z,101166.91
2023-03-20T23:37:36.444Z,101157.75
2023-03-20T23:40:04.385Z,101166.59
2023-03-20T23:42:31.167Z,101158.56
2023-03-20T23:45:04.411Z,101162.06
2023-03-20T23:47:44.481Z,101160.34
2023-03-20T23:50:20.625Z,101161.72
2023-03-20T23:53:01.135Z,101153.19
2023-03-20T23:55:35.499Z,101147.22
2023-03-20T23:58:02.652Z,101151.94
